Time;durP1;ratioP1;P1;durP2;ratioP2;P2;SDS_P1;SDS_P2;PMS_P1;PMS_P2;Temp;Humidity;BMP_temperature;BMP_pressure;BME280_temperature;BME280_humidity;BME280_pressure;Samples;Min_cycle;Max_cycle;Signal;HPM_P1;HPM_P2
2021/08/24 00:00:31;;;;;;;2.30;1.97;;;12.20;99.90;;;;;;5014845;28;20437;-84
2021/08/24 00:02:59;;;;;;;2.20;2.10;;;12.20;99.90;;;;;;5029954;28;20528;-84
2021/08/24 00:05:28;;;;;;;3.10;2.10;;;12.30;99.90;;;;;;5029508;28;20174;-84
2021/08/24 00:07:56;;;;;;;2.87;2.63;;;12.30;99.90;;;;;;5014131;28;20410;-84
2021/08/24 00:10:24;;;;;;;2.07;1.97;;;12.30;99.90;;;;;;5014165;28;20409;-84
2021/08/24 00:12:50;;;;;;;2.50;2.30;;;12.30;99.90;;;;;;5029442;28;20784;-84
2021/08/24 00:15:17;;;;;;;3.00;2.73;;;12.30;99.90;;;;;;5029791;28;20433;-84
2021/08/24 00:17:43;;;;;;;2.97;2.80;;;12.30;99.90;;;;;;5014338;28;20550;-84
2021/08/24 00:20:10;;;;;;;3.23;2.93;;;12.30;99.90;;;;;;5014118;28;20401;-84
2021/08/24 00:22:38;;;;;;;2.70;2.50;;;12.20;99.90;;;;;;5014035;28;20409;-84
2021/08/24 00:25:06;;;;;;;2.90;2.53;;;12.20;99.90;;;;;;5013976;28;20412;-84
2021/08/24 00:27:32;;;;;;;2.80;2.60;;;12.20;99.90;;;;;;5013901;28;20720;-84
2021/08/24 00:29:58;;;;;;;2.40;2.23;;;12.10;99.90;;;;;;5032996;28;20501;-84
2021/08/24 00:32:23;;;;;;;2.30;2.20;;;12.10;99.90;;;;;;5017356;28;20623;-84
2021/08/24 00:34:49;;;;;;;2.77;2.23;;;12.00;99.90;;;;;;5017400;28;20238;-84
2021/08/24 00:37:15;;;;;;;1.87;1.77;;;11.90;99.90;;;;;;5017544;28;20191;-84
2021/08/24 00:39:41;;;;;;;2.43;2.20;;;11.90;99.90;;;;;;5017625;28;20163;-84
2021/08/24 00:42:14;;;;;;;2.33;2.20;;;11.90;99.90;;;;;;5017127;28;20562;-84
2021/08/24 00:44:40;;;;;;;2.70;2.50;;;11.90;99.90;;;;;;5017752;28;20164;-84
2021/08/24 00:47:09;;;;;;;2.40;2.30;;;11.90;99.90;;;;;;5017414;28;20420;-84
2021/08/24 00:49:35;;;;;;;2.03;1.93;;;11.90;99.90;;;;;;5032551;28;20178;-84
2021/08/24 00:52:16;;;;;;;2.10;2.00;;;11.80;99.90;;;;;;5017112;28;20475;-84
2021/08/24 00:54:43;;;;;;;2.30;2.10;;;11.80;99.90;;;;;;5016996;28;20504;-84
2021/08/24 00:57:18;;;;;;;2.30;2.10;;;11.80;99.90;;;;;;5016958;28;20454;-84
2021/08/24 00:59:44;;;;;;;2.20;2.10;;;11.80;99.90;;;;;;5017056;28;20484;-84
2021/08/24 01:02:11;;;;;;;2.83;2.37;;;11.80;99.90;;;;;;5016855;28;20730;-84
2021/08/24 01:04:38;;;;;;;2.60;2.40;;;11.80;99.90;;;;;;5016945;28;20742;-84
2021/08/24 01:07:46;;;;;;;1.70;1.60;;;11.70;99.90;;;;;;5016661;28;20459;-84
2021/08/24 01:10:17;;;;;;;2.60;2.40;;;11.60;99.90;;;;;;5019036;28;20417;-84
2021/08/24 01:12:58;;;;;;;2.43;2.23;;;11.60;99.90;;;;;;5031998;28;20410;-84
2021/08/24 01:15:41;;;;;;;2.40;2.30;;;11.60;99.90;;;;;;5032062;28;20441;-84
2021/08/24 01:18:10;;;;;;;2.53;2.40;;;11.50;99.90;;;;;;5016421;28;20402;-84
2021/08/24 01:21:25;;;;;;;2.43;2.33;;;11.50;99.90;;;;;;5016495;28;20413;-84
2021/08/24 01:24:05;;;;;;;2.63;2.43;;;11.40;99.90;;;;;;5015222;28;20436;-84
2021/08/24 01:26:39;;;;;;;2.40;2.30;;;11.40;99.90;;;;;;5031965;28;20501;-84
2021/08/24 01:29:10;;;;;;;2.43;2.23;;;11.40;99.90;;;;;;5016699;28;20418;-84
2021/08/24 01:31:53;;;;;;;7.60;2.50;;;11.40;99.90;;;;;;5016364;28;20512;-84
2021/08/24 01:34:46;;;;;;;2.23;2.13;;;11.40;99.90;;;;;;5032172;28;20401;-84
2021/08/24 01:37:42;;;;;;;2.30;2.17;;;11.30;99.90;;;;;;5016300;28;20441;-84
2021/08/24 01:40:13;;;;;;;2.40;2.00;;;11.30;99.90;;;;;;5015542;28;20489;-84
2021/08/24 01:42:40;;;;;;;2.20;2.10;;;11.30;99.90;;;;;;5016107;28;20405;-84
2021/08/24 01:45:25;;;;;;;2.33;2.20;;;11.30;99.90;;;;;;5016142;28;20471;-84
2021/08/24 01:48:05;;;;;;;1.80;1.70;;;11.20;99.90;;;;;;5015912;28;20440;-84
2021/08/24 01:50:39;;;;;;;4.23;2.20;;;11.20;99.90;;;;;;5016339;28;20804;-83
2021/08/24 01:53:15;;;;;;;2.40;2.17;;;11.10;99.90;;;;;;5016080;28;20488;-84
2021/08/24 01:56:01;;;;;;;2.40;2.20;;;11.10;99.90;;;;;;5031225;28;20894;-84
2021/08/24 01:58:31;;;;;;;2.03;1.90;;;11.00;99.90;;;;;;5031357;28;20863;-84
2021/08/24 02:01:01;;;;;;;2.27;2.17;;;11.00;99.90;;;;;;5015886;28;20393;-84
2021/08/24 02:03:40;;;;;;;3.30;3.03;;;11.00;99.90;;;;;;5015706;28;20778;-84
2021/08/24 02:06:20;;;;;;;3.73;2.10;;;11.00;99.90;;;;;;5015786;28;20819;-83
2021/08/24 02:08:49;;;;;;;2.60;2.40;;;11.00;99.90;;;;;;5015500;28;20813;-84
2021/08/24 02:11:15;;;;;;;2.37;2.27;;;10.90;99.90;;;;;;5030989;28;20488;-84
2021/08/24 02:13:45;;;;;;;2.63;2.10;;;10.90;99.90;;;;;;5015575;28;20878;-84
2021/08/24 02:16:20;;;;;;;2.53;2.40;;;10.90;99.90;;;;;;5015485;28;20445;-84
2021/08/24 02:18:55;;;;;;;5.63;2.00;;;10.90;99.90;;;;;;5016062;28;20393;-84
2021/08/24 02:21:27;;;;;;;2.10;2.00;;;10.80;99.90;;;;;;5031206;28;20881;-84
2021/08/24 02:23:56;;;;;;;2.30;2.10;;;10.80;99.90;;;;;;5015497;28;20786;-83
2021/08/24 02:26:26;;;;;;;2.60;1.93;;;10.80;99.90;;;;;;5015378;28;20898;-84
2021/08/24 02:28:56;;;;;;;2.00;1.90;;;10.70;99.90;;;;;;5015297;28;20440;-84
2021/08/24 02:31:40;;;;;;;2.00;1.90;;;10.70;99.90;;;;;;5015804;28;20413;-84
2021/08/24 02:34:31;;;;;;;2.90;2.60;;;10.70;99.90;;;;;;5015287;28;20409;-84
2021/08/24 02:36:59;;;;;;;1.77;1.67;;;10.70;99.90;;;;;;5030677;28;20483;-83
2021/08/24 02:39:34;;;;;;;2.40;2.20;;;10.70;99.90;;;;;;5015123;28;20496;-84
2021/08/24 02:42:25;;;;;;;3.13;2.20;;;10.70;99.90;;;;;;5030531;28;20792;-84
2021/08/24 02:45:03;;;;;;;2.33;2.13;;;10.60;99.90;;;;;;5015047;28;20401;-84
2021/08/24 02:47:29;;;;;;;2.57;2.37;;;10.60;99.90;;;;;;5015036;28;20460;-84
2021/08/24 02:49:54;;;;;;;1.87;1.77;;;10.60;99.90;;;;;;5030311;28;20476;-84
2021/08/24 02:52:21;;;;;;;2.50;2.30;;;10.50;99.90;;;;;;5014832;28;20421;-84
2021/08/24 02:54:50;;;;;;;3.30;2.40;;;10.50;99.90;;;;;;5014823;28;20173;-84
2021/08/24 02:57:16;;;;;;;2.43;2.33;;;10.50;99.90;;;;;;5030333;28;20450;-84
2021/08/24 02:59:41;;;;;;;2.57;2.37;;;10.50;99.90;;;;;;5014687;28;20398;-84
2021/08/24 03:02:10;;;;;;;2.60;2.40;;;10.50;99.90;;;;;;5014735;28;20171;-84
2021/08/24 03:04:36;;;;;;;2.27;2.17;;;10.50;99.90;;;;;;5014753;28;20368;-84
2021/08/24 03:07:15;;;;;;;2.17;2.07;;;10.40;99.90;;;;;;5030056;28;20433;-84
2021/08/24 03:09:43;;;;;;;1.93;1.83;;;10.40;99.90;;;;;;5030061;28;20447;-84
2021/08/24 03:12:32;;;;;;;2.30;2.00;;;10.40;99.90;;;;;;5029952;28;20409;-84
2021/08/24 03:15:02;;;;;;;4.80;2.13;;;10.30;99.90;;;;;;5014584;28;20452;-84
2021/08/24 03:18:12;;;;;;;2.00;1.90;;;10.30;99.90;;;;;;5029948;28;20457;-84
2021/08/24 03:20:44;;;;;;;2.40;2.30;;;10.20;99.90;;;;;;5032526;28;20923;-84
2021/08/24 03:23:12;;;;;;;2.23;2.13;;;10.10;99.90;;;;;;5032408;28;20874;-84
2021/08/24 03:25:42;;;;;;;2.13;1.83;;;10.10;99.90;;;;;;5022983;28;20420;-84
2021/08/24 03:28:15;;;;;;;2.37;2.23;;;10.00;99.90;;;;;;5014413;28;20401;-84
2021/08/24 03:30:42;;;;;;;3.03;2.30;;;9.90;99.90;;;;;;5014600;28;20386;-84
2021/08/24 03:33:09;;;;;;;2.33;2.23;;;9.90;99.90;;;;;;5014297;28;20406;-84
2021/08/24 03:35:35;;;;;;;2.37;2.27;;;9.90;99.90;;;;;;5014311;28;20413;-84
2021/08/24 03:38:01;;;;;;;2.90;2.20;;;9.90;99.90;;;;;;5029663;28;20466;-84
2021/08/24 03:40:27;;;;;;;2.57;2.40;;;9.90;99.90;;;;;;5014385;28;20433;-84
2021/08/24 03:42:55;;;;;;;2.50;1.93;;;10.00;99.90;;;;;;5029634;28;20418;-84
2021/08/24 03:45:21;;;;;;;2.30;2.20;;;10.00;99.90;;;;;;5014117;28;20174;-84
2021/08/24 03:47:47;;;;;;;2.47;2.37;;;10.00;99.90;;;;;;5014240;28;20406;-84
2021/08/24 03:50:12;;;;;;;2.70;2.30;;;10.00;99.90;;;;;;5014351;28;20417;-84
2021/08/24 03:52:38;;;;;;;1.73;1.63;;;10.00;99.90;;;;;;5014228;28;20481;-84
2021/08/24 03:55:05;;;;;;;2.60;2.40;;;10.00;99.90;;;;;;5014195;28;20224;-84
2021/08/24 03:57:30;;;;;;;2.00;1.90;;;10.00;99.90;;;;;;5014318;28;20195;-84
2021/08/24 03:59:56;;;;;;;2.07;1.97;;;10.00;99.90;;;;;;5029589;28;20417;-84
2021/08/24 04:02:23;;;;;;;2.40;2.10;;;9.90;99.90;;;;;;5013976;28;20489;-84
2021/08/24 04:04:49;;;;;;;1.83;1.73;;;9.90;99.90;;;;;;5033383;28;20753;-84
2021/08/24 04:07:15;;;;;;;1.90;1.80;;;9.90;99.90;;;;;;5017890;28;20452;-84
2021/08/24 04:09:40;;;;;;;4.00;2.40;;;9.90;99.90;;;;;;5018029;28;20505;-84
2021/08/24 04:12:07;;;;;;;1.90;1.80;;;9.90;99.90;;;;;;5017800;28;20171;-84
2021/08/24 04:14:33;;;;;;;2.20;2.10;;;9.80;99.90;;;;;;5017836;28;20178;-84
2021/08/24 04:16:58;;;;;;;2.30;2.13;;;9.80;99.90;;;;;;5017972;28;20448;-84
2021/08/24 04:19:24;;;;;;;1.73;1.63;;;9.80;99.90;;;;;;5017771;28;20162;-84
2021/08/24 04:21:50;;;;;;;2.00;1.90;;;9.80;99.90;;;;;;5033281;28;20514;-84
2021/08/24 04:24:16;;;;;;;2.27;2.07;;;9.80;99.90;;;;;;5033322;28;20402;-84
2021/08/24 04:26:42;;;;;;;2.80;2.47;;;9.80;99.90;;;;;;5017559;28;20616;-84
2021/08/24 04:29:07;;;;;;;2.17;2.07;;;9.90;99.90;;;;;;5017537;28;20174;-84
2021/08/24 04:31:38;;;;;;;2.50;2.30;;;9.90;99.90;;;;;;5033235;28;20170;-84
2021/08/24 04:34:04;;;;;;;3.77;1.80;;;9.80;99.90;;;;;;5017504;28;20601;-84
2021/08/24 04:36:29;;;;;;;2.80;2.43;;;9.90;99.90;;;;;;5017320;28;20449;-84
2021/08/24 04:38:55;;;;;;;2.50;2.30;;;9.90;99.90;;;;;;5017796;28;20777;-84
2021/08/24 04:41:21;;;;;;;3.07;2.30;;;9.80;99.90;;;;;;5017521;28;20167;-84
2021/08/24 04:43:46;;;;;;;1.80;1.70;;;9.90;99.90;;;;;;5032759;28;20262;-84
2021/08/24 04:46:12;;;;;;;2.77;2.17;;;9.90;99.90;;;;;;5017226;28;20201;-84
2021/08/24 04:48:38;;;;;;;3.23;2.10;;;9.90;99.90;;;;;;5017205;28;20510;-84
2021/08/24 04:51:03;;;;;;;2.00;1.90;;;9.90;99.90;;;;;;5017407;28;20162;-85
2021/08/24 04:53:29;;;;;;;2.20;2.07;;;9.90;99.90;;;;;;5017100;28;20202;-84
2021/08/24 04:55:56;;;;;;;2.53;2.33;;;9.90;99.90;;;;;;5032891;28;20190;-84
2021/08/24 04:58:22;;;;;;;4.10;2.30;;;9.90;99.90;;;;;;5016817;28;20406;-85
2021/08/24 05:00:48;;;;;;;2.87;2.67;;;9.90;99.90;;;;;;5032452;28;20424;-84
2021/08/24 05:03:15;;;;;;;2.40;2.27;;;10.00;99.90;;;;;;5016785;28;20398;-84
2021/08/24 05:05:40;;;;;;;2.50;2.30;;;10.00;99.90;;;;;;5032357;28;20623;-85
2021/08/24 05:08:06;;;;;;;1.87;1.77;;;10.00;99.90;;;;;;5016903;28;20441;-84
2021/08/24 05:10:33;;;;;;;2.13;2.03;;;10.00;99.90;;;;;;5032458;28;20171;-85
2021/08/24 05:13:00;;;;;;;2.60;2.40;;;10.00;99.90;;;;;;5016800;28;20174;-85
2021/08/24 05:15:26;;;;;;;2.27;2.10;;;10.00;99.90;;;;;;5015656;28;20777;-84
2021/08/24 05:17:52;;;;;;;2.10;2.00;;;10.00;99.90;;;;;;5017117;28;20480;-84
2021/08/24 05:20:19;;;;;;;3.63;2.40;;;10.10;99.90;;;;;;5032516;28;20413;-85
2021/08/24 05:22:45;;;;;;;3.17;2.23;;;10.10;99.90;;;;;;5016898;28;20163;-85
2021/08/24 05:25:13;;;;;;;1.90;1.80;;;10.10;99.90;;;;;;5016778;28;20398;-84
2021/08/24 05:27:39;;;;;;;2.60;2.50;;;10.20;99.90;;;;;;5032091;28;20937;-84
2021/08/24 05:30:08;;;;;;;2.13;2.03;;;10.30;99.90;;;;;;5016640;28;20433;-84
2021/08/24 05:32:34;;;;;;;2.47;2.30;;;10.30;99.90;;;;;;5032117;28;20487;-85
2021/08/24 05:35:00;;;;;;;2.87;2.60;;;10.40;99.90;;;;;;5016683;28;20509;-84
2021/08/24 05:37:25;;;;;;;2.60;2.50;;;10.40;99.90;;;;;;5016534;28;20560;-84
2021/08/24 05:39:51;;;;;;;2.30;2.10;;;10.40;99.90;;;;;;5016660;28;20178;-84
2021/08/24 05:42:17;;;;;;;2.90;2.70;;;10.50;99.90;;;;;;5016598;28;20194;-85
2021/08/24 05:44:42;;;;;;;3.03;2.77;;;10.50;99.90;;;;;;5017121;28;20183;-84
2021/08/24 05:47:08;;;;;;;2.93;2.63;;;10.60;99.90;;;;;;5016794;28;20201;-85
2021/08/24 05:49:35;;;;;;;3.77;2.80;;;10.70;99.90;;;;;;5016971;28;20489;-85
2021/08/24 05:52:01;;;;;;;3.23;2.43;;;10.70;99.90;;;;;;5016567;28;20182;-85
2021/08/24 05:54:26;;;;;;;3.50;3.20;;;10.80;99.90;;;;;;5016379;28;20412;-85
2021/08/24 05:56:52;;;;;;;3.20;2.87;;;10.90;99.90;;;;;;5016483;28;20449;-84
2021/08/24 05:59:18;;;;;;;4.70;3.47;;;11.00;99.90;;;;;;5016440;28;20197;-85
2021/08/24 06:01:44;;;;;;;4.60;3.80;;;11.10;99.90;;;;;;5016209;28;20669;-84
2021/08/24 06:04:10;;;;;;;4.90;4.27;;;11.10;99.90;;;;;;5016040;28;20251;-84
2021/08/24 06:06:38;;;;;;;8.23;4.37;;;11.20;99.90;;;;;;5016054;28;20412;-85
2021/08/24 06:09:10;;;;;;;4.00;3.43;;;11.20;99.90;;;;;;5015962;28;20171;-85
2021/08/24 06:11:39;;;;;;;5.13;3.97;;;11.30;99.90;;;;;;5015697;28;20417;-85
2021/08/24 06:14:07;;;;;;;4.90;4.20;;;11.40;99.90;;;;;;5015799;28;20422;-85
2021/08/24 06:16:34;;;;;;;4.87;4.13;;;11.50;99.90;;;;;;5015766;28;20441;-85
2021/08/24 06:19:00;;;;;;;4.87;3.83;;;11.60;99.90;;;;;;5031044;28;20405;-85
2021/08/24 06:21:26;;;;;;;3.70;3.27;;;11.70;99.90;;;;;;5015358;28;20405;-85
2021/08/24 06:23:52;;;;;;;3.37;3.07;;;11.80;99.90;;;;;;5015343;28;20398;-85
2021/08/24 06:26:18;;;;;;;4.80;2.80;;;11.90;99.90;;;;;;5015013;28;20181;-85
2021/08/24 06:28:44;;;;;;;3.40;3.10;;;12.10;99.90;;;;;;5016020;28;20436;-85
2021/08/24 06:31:19;;;;;;;3.43;2.80;;;12.20;99.90;;;;;;5030983;28;20750;-85
2021/08/24 06:33:45;;;;;;;3.43;3.13;;;12.40;99.90;;;;;;5030501;28;20181;-85
2021/08/24 06:36:11;;;;;;;2.10;2.00;;;12.50;99.90;;;;;;5015092;28;20784;-85
2021/08/24 06:38:37;;;;;;;2.97;2.30;;;12.70;99.90;;;;;;5015107;28;20468;-85
2021/08/24 06:41:04;;;;;;;3.53;2.43;;;12.70;99.90;;;;;;5015218;28;20409;-85
2021/08/24 06:43:30;;;;;;;3.47;2.40;;;12.80;99.90;;;;;;5015531;28;20171;-85
2021/08/24 06:45:56;;;;;;;2.57;2.37;;;12.90;99.90;;;;;;5015199;28;20410;-84
2021/08/24 06:48:22;;;;;;;2.33;2.23;;;13.00;99.90;;;;;;5030591;28;20414;-85
2021/08/24 06:50:48;;;;;;;2.27;2.07;;;13.10;99.90;;;;;;5015017;28;20189;-85
2021/08/24 06:53:14;;;;;;;2.00;1.80;;;13.10;99.90;;;;;;5015010;28;20186;-85
2021/08/24 06:55:40;;;;;;;3.03;2.10;;;13.20;99.90;;;;;;5015026;28;20402;-85
2021/08/24 06:58:08;;;;;;;2.50;1.90;;;13.40;99.90;;;;;;5015119;28;20789;-84
2021/08/24 07:00:35;;;;;;;3.87;1.73;;;13.50;99.90;;;;;;5030596;28;20414;-85
2021/08/24 07:03:01;;;;;;;1.90;1.80;;;13.60;99.90;;;;;;5015417;28;20512;-84
2021/08/24 07:05:29;;;;;;;2.40;1.70;;;13.70;99.90;;;;;;5015209;28;20812;-85
2021/08/24 07:07:55;;;;;;;2.37;2.03;;;13.70;99.90;;;;;;5015069;28;20167;-85
2021/08/24 07:10:22;;;;;;;2.07;1.87;;;13.80;99.90;;;;;;5015344;28;20805;-85
2021/08/24 07:12:48;;;;;;;2.60;1.50;;;13.80;99.90;;;;;;5030536;28;20457;-85
2021/08/24 07:15:18;;;;;;;3.00;1.67;;;13.90;99.90;;;;;;5015197;28;20429;-85
2021/08/24 07:17:45;;;;;;;1.90;1.80;;;14.10;99.90;;;;;;5015233;28;20528;-85
2021/08/24 07:20:14;;;;;;;1.40;1.30;;;14.20;99.90;;;;;;5015220;28;20474;-85
2021/08/24 07:22:40;;;;;;;1.53;1.43;;;14.30;99.90;;;;;;5015209;28;20409;-85
2021/08/24 07:25:12;;;;;;;4.10;2.00;;;14.40;99.90;;;;;;5030414;28;20483;-85
2021/08/24 07:27:37;;;;;;;1.70;1.60;;;14.50;99.90;;;;;;5015259;28;20250;-85
2021/08/24 07:30:04;;;;;;;2.00;1.90;;;14.60;99.90;;;;;;5030662;28;20851;-85
2021/08/24 07:32:30;;;;;;;2.00;1.67;;;14.70;99.90;;;;;;5015051;28;20179;-85
2021/08/24 07:34:56;;;;;;;2.50;1.50;;;14.90;99.90;;;;;;5014898;28;20416;-85
2021/08/24 07:37:21;;;;;;;3.83;1.70;;;14.90;99.90;;;;;;5014921;28;20647;-85
2021/08/24 07:39:47;;;;;;;2.30;1.40;;;15.00;99.90;;;;;;5018664;28;20171;-85
2021/08/24 07:42:13;;;;;;;1.90;1.20;;;15.20;99.90;;;;;;5018750;28;20201;-85
2021/08/24 07:44:39;;;;;;;2.10;1.67;;;15.40;99.90;;;;;;5018889;28;20256;-85
2021/08/24 07:47:09;;;;;;;2.13;1.57;;;15.50;99.90;;;;;;5034160;28;20516;-85
2021/08/24 07:49:35;;;;;;;1.40;1.30;;;15.50;99.90;;;;;;5019391;28;20257;-85
2021/08/24 07:52:06;;;;;;;2.17;1.50;;;15.50;99.90;;;;;;5018858;28;20511;-85
2021/08/24 07:54:33;;;;;;;1.53;1.43;;;15.60;99.90;;;;;;5034144;28;20413;-85
2021/08/24 07:56:58;;;;;;;2.70;1.90;;;15.60;99.90;;;;;;5034239;28;20922;-84
2021/08/24 07:59:24;;;;;;;1.87;1.33;;;15.70;99.90;;;;;;5018740;28;20413;-85
2021/08/24 08:01:53;;;;;;;1.53;1.43;;;15.70;99.90;;;;;;5018607;28;20202;-85
2021/08/24 08:04:20;;;;;;;1.40;1.30;;;15.80;99.90;;;;;;5018908;28;20175;-85
2021/08/24 08:06:45;;;;;;;1.90;1.80;;;15.80;99.90;;;;;;5018602;28;20495;-85
2021/08/24 08:09:11;;;;;;;1.40;1.30;;;16.00;99.90;;;;;;5034049;28;20421;-85
2021/08/24 08:11:38;;;;;;;2.03;1.73;;;16.10;99.90;;;;;;5018047;28;20174;-85
2021/08/24 08:14:04;;;;;;;2.30;1.80;;;16.20;99.90;;;;;;5017863;28;20662;-85
2021/08/24 08:16:31;;;;;;;1.73;1.57;;;16.30;99.90;;;;;;5033505;28;20441;-85
2021/08/24 08:18:57;;;;;;;1.50;1.40;;;16.40;99.90;;;;;;5018275;28;20490;-85
2021/08/24 08:21:22;;;;;;;1.57;1.47;;;16.40;99.90;;;;;;5018281;28;20803;-85
2021/08/24 08:23:48;;;;;;;2.83;1.57;;;16.50;99.90;;;;;;5018194;28;20199;-85
2021/08/24 08:26:14;;;;;;;1.97;1.77;;;16.60;99.90;;;;;;5018375;28;20167;-85
2021/08/24 08:28:40;;;;;;;1.40;1.30;;;16.70;99.90;;;;;;5017965;28;20182;-85
2021/08/24 08:31:10;;;;;;;1.43;1.33;;;16.70;99.90;;;;;;5033296;28;20780;-85
2021/08/24 08:33:35;;;;;;;1.73;1.20;;;16.70;99.90;;;;;;5017713;28;20420;-85
2021/08/24 08:36:01;;;;;;;1.50;1.17;;;16.70;99.90;;;;;;5017782;28;20918;-85
2021/08/24 08:38:27;;;;;;;1.30;1.20;;;16.80;99.90;;;;;;5017926;28;20166;-85
2021/08/24 08:41:02;;;;;;;1.80;1.70;;;17.00;99.90;;;;;;5017830;28;20177;-85
2021/08/24 08:43:58;;;;;;;1.60;1.50;;;17.30;99.90;;;;;;5017817;28;20147;-85
2021/08/24 08:46:31;;;;;;;1.40;1.30;;;17.40;99.90;;;;;;5018096;28;20833;-85
2021/08/24 08:49:11;;;;;;;1.53;1.43;;;17.40;99.90;;;;;;5017446;28;20398;-84
2021/08/24 08:51:49;;;;;;;1.77;1.67;;;17.70;99.90;;;;;;5017409;28;20390;-85
2021/08/24 08:54:29;;;;;;;1.33;1.23;;;17.60;99.90;;;;;;5017322;28;20451;-84
2021/08/24 08:57:01;;;;;;;1.47;1.37;;;17.70;99.90;;;;;;5033149;28;20577;-85
2021/08/24 08:59:38;;;;;;;1.43;1.33;;;17.70;99.90;;;;;;5017435;28;20386;-84
2021/08/24 09:02:22;;;;;;;1.37;1.23;;;17.90;99.90;;;;;;5017212;28;20385;-84
2021/08/24 09:04:49;;;;;;;2.20;0.90;;;17.90;99.90;;;;;;5017704;28;20424;-85
2021/08/24 09:07:40;;;;;;;2.53;0.90;;;18.00;99.90;;;;;;5033158;28;20424;-85
2021/08/24 09:10:13;;;;;;;1.40;1.30;;;18.10;99.90;;;;;;5033248;28;20449;-85
2021/08/24 09:12:40;;;;;;;1.87;0.90;;;18.20;99.90;;;;;;5017335;28;20784;-85
2021/08/24 09:15:16;;;;;;;1.00;1.00;;;18.20;99.90;;;;;;5033080;28;20443;-84
2021/08/24 09:17:42;;;;;;;1.20;1.10;;;18.20;99.90;;;;;;5017509;28;20544;-85
2021/08/24 09:20:26;;;;;;;1.07;1.00;;;18.30;99.90;;;;;;5033639;28;20984;-85
2021/08/24 09:22:52;;;;;;;1.30;1.30;;;18.50;99.90;;;;;;5018244;28;20169;-85
2021/08/24 09:25:34;;;;;;;2.33;1.50;;;18.60;99.90;;;;;;5018499;28;20490;-85
2021/08/24 09:28:26;;;;;;;1.40;1.30;;;18.70;99.90;;;;;;5018240;28;20394;-85
2021/08/24 09:30:52;;;;;;;1.73;1.57;;;18.90;99.90;;;;;;5016986;28;20390;-85
2021/08/24 09:33:18;;;;;;;1.43;1.33;;;19.00;99.90;;;;;;5032572;28;20875;-84
2021/08/24 09:35:49;;;;;;;4.03;1.60;;;19.10;99.90;;;;;;5016808;28;20410;-84
2021/08/24 09:38:16;;;;;;;2.20;1.83;;;19.30;99.90;;;;;;5032463;28;20171;-84
2021/08/24 09:40:46;;;;;;;2.37;1.80;;;19.30;99.90;;;;;;5017106;28;20413;-84
2021/08/24 09:43:25;;;;;;;2.07;1.70;;;19.40;99.90;;;;;;5017255;28;21018;-84
2021/08/24 09:46:17;;;;;;;3.43;2.00;;;19.50;99.90;;;;;;5017827;28;20512;-85
2021/08/24 09:49:07;;;;;;;1.67;1.57;;;19.70;99.90;;;;;;5016807;28;20406;-84
2021/08/24 09:51:59;;;;;;;2.03;1.80;;;19.70;99.90;;;;;;5032913;28;20406;-84
2021/08/24 09:54:40;;;;;;;1.87;1.63;;;19.80;99.90;;;;;;5032804;28;20500;-84
2021/08/24 09:57:11;;;;;;;2.40;1.30;;;19.70;99.90;;;;;;5032340;28;20453;-85
2021/08/24 09:59:56;;;;;;;1.87;1.70;;;19.80;99.90;;;;;;5017235;28;20471;-84
2021/08/24 10:02:43;;;;;;;1.50;1.20;;;19.80;99.90;;;;;;5017723;28;20390;-84
2021/08/24 10:05:13;;;;;;;1.67;1.57;;;20.00;99.90;;;;;;5033838;28;20410;-84
2021/08/24 10:07:41;;;;;;;1.67;1.57;;;20.10;99.90;;;;;;5018480;28;20498;-85
2021/08/24 10:10:32;;;;;;;2.00;1.80;;;20.20;99.90;;;;;;5019013;28;20464;-84
2021/08/24 10:13:19;;;;;;;1.80;1.70;;;20.30;99.90;;;;;;5034001;28;20410;-84
2021/08/24 10:15:47;;;;;;;1.60;1.50;;;20.40;99.90;;;;;;5019430;28;20774;-85
2021/08/24 10:18:26;;;;;;;2.53;1.97;;;20.60;99.90;;;;;;5034733;28;20425;-85
2021/08/24 10:20:54;;;;;;;3.53;1.50;;;20.80;99.90;;;;;;5018803;28;20431;-85
2021/08/24 10:23:27;;;;;;;1.73;1.60;;;20.90;99.90;;;;;;5018327;28;20410;-84
2021/08/24 10:25:57;;;;;;;1.97;1.87;;;20.90;99.90;;;;;;5034538;28;20418;-85
2021/08/24 10:28:30;;;;;;;1.90;1.70;;;20.80;99.90;;;;;;5017836;28;20413;-84
2021/08/24 10:31:01;;;;;;;2.00;1.80;;;20.80;99.90;;;;;;5018049;28;20482;-85
2021/08/24 10:33:40;;;;;;;2.10;1.70;;;20.90;99.90;;;;;;5017536;28;20397;-84
2021/08/24 10:36:28;;;;;;;2.13;1.93;;;21.10;99.90;;;;;;5017456;28;20448;-84
2021/08/24 10:39:17;;;;;;;2.50;1.80;;;21.20;99.90;;;;;;5033011;28;20753;-84
2021/08/24 10:41:47;;;;;;;1.83;1.67;;;21.30;99.90;;;;;;5033756;28;20403;-85
2021/08/24 10:44:24;;;;;;;2.43;2.00;;;21.30;99.90;;;;;;5019455;28;20390;-85
2021/08/24 10:47:17;;;;;;;2.23;2.13;;;21.10;99.90;;;;;;5034893;28;20428;-85
2021/08/24 10:49:43;;;;;;;2.80;2.60;;;21.00;99.90;;;;;;5035386;28;20405;-85
2021/08/24 10:52:42;;;;;;;2.30;2.10;;;21.10;99.90;;;;;;5035863;28;20424;-85
2021/08/24 10:55:20;;;;;;;2.60;2.40;;;21.20;99.90;;;;;;5034478;28;20239;-85
2021/08/24 10:58:13;;;;;;;3.97;2.50;;;21.30;99.90;;;;;;5018791;28;20429;-85
2021/08/24 11:01:08;;;;;;;1.97;1.87;;;21.50;99.90;;;;;;5018489;28;20457;-85
2021/08/24 11:03:40;;;;;;;3.23;1.77;;;21.50;99.90;;;;;;5033868;28;20417;-85
2021/08/24 11:06:27;;;;;;;2.30;2.10;;;21.60;99.90;;;;;;5020120;28;20409;-85
2021/08/24 11:09:26;;;;;;;3.33;2.13;;;21.60;99.90;;;;;;5018626;28;20969;-85
2021/08/24 11:12:19;;;;;;;2.30;1.93;;;21.70;99.90;;;;;;5020195;28;20797;-85
2021/08/24 11:15:12;;;;;;;3.20;1.90;;;21.70;99.90;;;;;;5020495;28;20483;-85
2021/08/24 11:17:54;;;;;;;1.93;1.80;;;21.90;99.90;;;;;;5020817;28;20777;-85
2021/08/24 11:20:32;;;;;;;2.10;1.90;;;21.90;99.90;;;;;;5033767;28;20493;-85
2021/08/24 11:23:43;;;;;;;2.33;1.70;;;22.00;99.90;;;;;;5017269;28;20390;-85
2021/08/24 11:26:27;;;;;;;2.73;2.53;;;22.00;99.90;;;;;;5018461;28;20413;-85
2021/08/24 11:29:12;;;;;;;2.37;2.17;;;22.20;99.90;;;;;;5018839;28;20409;-85
2021/08/24 11:31:56;;;;;;;3.37;1.90;;;22.30;99.90;;;;;;5033578;28;20406;-85
2021/08/24 11:34:27;;;;;;;3.50;2.47;;;22.40;99.90;;;;;;5033443;28;20408;-85
2021/08/24 11:37:05;;;;;;;2.00;1.80;;;22.60;99.90;;;;;;5033184;28;20445;-85
2021/08/24 11:39:48;;;;;;;6.83;1.87;;;22.40;99.90;;;;;;5018162;28;20386;-84
2021/08/24 11:42:26;;;;;;;2.43;1.80;;;22.30;99.90;;;;;;5032612;28;20424;-85
2021/08/24 11:44:55;;;;;;;2.47;1.90;;;22.30;99.90;;;;;;5018559;28;20433;-85
2021/08/24 11:47:32;;;;;;;2.37;2.00;;;22.20;99.90;;;;;;5019635;28;20409;-84
2021/08/24 11:50:09;;;;;;;1.93;1.83;;;21.90;99.90;;;;;;5019092;28;20434;-85
2021/08/24 11:52:48;;;;;;;1.93;1.83;;;21.70;99.90;;;;;;5018338;28;20409;-84
2021/08/24 11:55:37;;;;;;;2.50;2.30;;;21.40;99.90;;;;;;5034046;28;20794;-84
2021/08/24 11:58:27;;;;;;;2.23;2.07;;;21.60;99.90;;;;;;5017342;28;20499;-84
2021/08/24 12:00:55;;;;;;;3.20;2.17;;;21.80;99.90;;;;;;5018224;28;20475;-84
2021/08/24 12:03:23;;;;;;;2.33;2.23;;;22.20;99.90;;;;;;5033531;28;20423;-85
2021/08/24 12:06:00;;;;;;;3.33;2.20;;;22.40;99.90;;;;;;5017468;28;20883;-84
2021/08/24 12:08:32;;;;;;;2.27;2.13;;;22.50;99.90;;;;;;5017463;28;20429;-85
2021/08/24 12:11:14;;;;;;;2.27;2.07;;;22.70;99.90;;;;;;5018167;28;20461;-85
2021/08/24 12:13:54;;;;;;;2.90;1.93;;;22.80;99.90;;;;;;5033547;28;20471;-85
2021/08/24 12:16:23;;;;;;;2.10;1.90;;;22.90;99.90;;;;;;5018233;28;20965;-85
2021/08/24 12:19:17;;;;;;;2.70;2.50;;;23.20;99.90;;;;;;5018308;28;20417;-84
2021/08/24 12:21:48;;;;;;;2.00;1.90;;;23.40;99.90;;;;;;5019334;28;20891;-84
2021/08/24 12:24:30;;;;;;;2.50;1.90;;;23.40;99.90;;;;;;5019436;28;20407;-85
2021/08/24 12:26:56;;;;;;;1.87;1.77;;;23.40;99.90;;;;;;5022175;28;20401;-84
2021/08/24 12:29:36;;;;;;;2.07;1.97;;;23.20;99.90;;;;;;5021480;28;20451;-84
2021/08/24 12:32:20;;;;;;;3.10;2.50;;;23.30;99.90;;;;;;5036498;28;20170;-84
2021/08/24 12:34:49;;;;;;;2.37;2.13;;;23.10;99.90;;;;;;5020782;28;20485;-84
2021/08/24 12:37:20;;;;;;;3.00;1.87;;;23.10;99.90;;;;;;5019161;28;20543;-85
2021/08/24 12:39:48;;;;;;;2.23;1.93;;;23.10;99.90;;;;;;5018847;28;20413;-85
2021/08/24 12:42:39;;;;;;;2.30;2.10;;;23.20;99.90;;;;;;5018596;28;20409;-84
2021/08/24 12:45:04;;;;;;;2.77;2.00;;;23.50;99.90;;;;;;5018493;28;20429;-85
2021/08/24 12:47:39;;;;;;;1.90;1.80;;;23.50;99.90;;;;;;5034144;28;20414;-85
2021/08/24 12:50:08;;;;;;;2.90;2.10;;;23.50;99.90;;;;;;5033981;28;20509;-85
2021/08/24 12:52:36;;;;;;;2.43;2.23;;;23.30;99.90;;;;;;5018684;28;20745;-84
2021/08/24 12:55:08;;;;;;;2.27;2.00;;;23.20;99.90;;;;;;5033811;28;20475;-84
2021/08/24 12:57:41;;;;;;;2.60;1.93;;;23.20;99.90;;;;;;5018586;28;21061;-84
2021/08/24 13:00:31;;;;;;;4.27;2.73;;;23.20;99.90;;;;;;5034008;28;20842;-84
2021/08/24 13:03:17;;;;;;;4.27;2.27;;;23.30;99.90;;;;;;5018365;28;20879;-84
2021/08/24 13:05:44;;;;;;;2.40;2.27;;;23.50;99.90;;;;;;5033315;28;20413;-84
2021/08/24 13:08:28;;;;;;;2.20;1.80;;;23.50;99.90;;;;;;5017929;28;20417;-85
2021/08/24 13:11:32;;;;;;;2.53;2.33;;;23.80;99.90;;;;;;5018238;28;20401;-85
2021/08/24 13:13:59;;;;;;;2.23;2.07;;;24.10;99.90;;;;;;5017852;28;20516;-85